sensor_id;sensor_type;location;lat;lon;timestamp;temperature;humidity
22071;DHT22;11200;51.488;6.668;2022-10-22T00:00:26;13.30;99.90
22071;DHT22;11200;51.488;6.668;2022-10-22T00:02:52;13.40;99.90
22071;DHT22;11200;51.488;6.668;2022-10-22T00:05:18;13.70;99.90
22071;DHT22;11200;51.488;6.668;2022-10-22T00:07:43;13.40;99.90
22071;DHT22;11200;51.488;6.668;2022-10-22T00:10:09;13.40;99.90
22071;DHT22;11200;51.488;6.668;2022-10-22T00:12:35;13.30;99.90
22071;DHT22;11200;51.488;6.668;2022-10-22T00:15:02;13.30;99.90
22071;DHT22;11200;51.488;6.668;2022-10-22T00:17:27;13.30;99.90
22071;DHT22;11200;51.488;6.668;2022-10-22T00:19:53;13.20;99.90
22071;DHT22;11200;51.488;6.668;2022-10-22T00:22:18;13.20;99.90
22071;DHT22;11200;51.488;6.668;2022-10-22T00:24:44;13.30;99.90
22071;DHT22;11200;51.488;6.668;2022-10-22T00:27:10;13.40;99.90
22071;DHT22;11200;51.488;6.668;2022-10-22T00:29:36;13.30;99.90
22071;DHT22;11200;51.488;6.668;2022-10-22T00:32:02;13.30;99.90
22071;DHT22;11200;51.488;6.668;2022-10-22T00:34:28;13.20;99.90
22071;DHT22;11200;51.488;6.668;2022-10-22T00:36:54;13.20;99.90
22071;DHT22;11200;51.488;6.668;2022-10-22T00:39:21;13.20;99.90
22071;DHT22;11200;51.488;6.668;2022-10-22T00:41:49;13.20;99.90
22071;DHT22;11200;51.488;6.668;2022-10-22T00:47:19;13.20;99.90
22071;DHT22;11200;51.488;6.668;2022-10-22T00:49:47;13.20;99.90
22071;DHT22;11200;51.488;6.668;2022-10-22T00:52:13;13.20;99.90
22071;DHT22;11200;51.488;6.668;2022-10-22T00:54:39;13.40;99.90
22071;DHT22;11200;51.488;6.668;2022-10-22T00:57:05;13.80;99.90
22071;DHT22;11200;51.488;6.668;2022-10-22T00:59:31;13.20;99.90
22071;DHT22;11200;51.488;6.668;2022-10-22T01:01:57;13.10;99.90
22071;DHT22;11200;51.488;6.668;2022-10-22T01:04:23;13.10;99.90
22071;DHT22;11200;51.488;6.668;2022-10-22T01:06:48;13.10;99.90
22071;DHT22;11200;51.488;6.668;2022-10-22T01:09:25;13.10;99.90
22071;DHT22;11200;51.488;6.668;2022-10-22T01:12:03;13.10;99.90
22071;DHT22;11200;51.488;6.668;2022-10-22T01:15:06;13.00;99.90
22071;DHT22;11200;51.488;6.668;2022-10-22T01:17:38;13.10;99.90
22071;DHT22;11200;51.488;6.668;2022-10-22T01:31:57;13.10;99.90
22071;DHT22;11200;51.488;6.668;2022-10-22T01:34:24;13.10;99.90
22071;DHT22;11200;51.488;6.668;2022-10-22T01:36:52;13.00;99.90
22071;DHT22;11200;51.488;6.668;2022-10-22T01:39:20;13.00;99.90
22071;DHT22;11200;51.488;6.668;2022-10-22T01:41:47;13.00;99.90
22071;DHT22;11200;51.488;6.668;2022-10-22T01:44:34;13.00;99.90
22071;DHT22;11200;51.488;6.668;2022-10-22T01:49:58;13.00;99.90
22071;DHT22;11200;51.488;6.668;2022-10-22T01:52:45;13.00;99.90
22071;DHT22;11200;51.488;6.668;2022-10-22T01:55:47;13.00;99.90
22071;DHT22;11200;51.488;6.668;2022-10-22T01:58:34;13.00;99.90
22071;DHT22;11200;51.488;6.668;2022-10-22T02:06:40;12.90;99.90
22071;DHT22;11200;51.488;6.668;2022-10-22T02:09:08;13.00;99.90
22071;DHT22;11200;51.488;6.668;2022-10-22T02:11:34;12.90;99.90
22071;DHT22;11200;51.488;6.668;2022-10-22T02:14:02;13.00;99.90
22071;DHT22;11200;51.488;6.668;2022-10-22T02:16:34;13.90;99.90
22071;DHT22;11200;51.488;6.668;2022-10-22T02:19:04;12.90;99.90
22071;DHT22;11200;51.488;6.668;2022-10-22T02:21:31;12.80;99.90
22071;DHT22;11200;51.488;6.668;2022-10-22T02:23:56;12.80;99.90
22071;DHT22;11200;51.488;6.668;2022-10-22T02:26:30;12.90;99.90
22071;DHT22;11200;51.488;6.668;2022-10-22T02:29:02;13.10;99.90
22071;DHT22;11200;51.488;6.668;2022-10-22T02:31:31;12.80;99.90
22071;DHT22;11200;51.488;6.668;2022-10-22T02:34:04;12.80;99.90
22071;DHT22;11200;51.488;6.668;2022-10-22T02:36:33;12.80;99.90
22071;DHT22;11200;51.488;6.668;2022-10-22T02:38:59;12.60;99.90
22071;DHT22;11200;51.488;6.668;2022-10-22T02:41:25;12.80;99.90
22071;DHT22;11200;51.488;6.668;2022-10-22T02:43:55;13.00;99.90
22071;DHT22;11200;51.488;6.668;2022-10-22T02:46:21;12.80;99.90
22071;DHT22;11200;51.488;6.668;2022-10-22T02:48:47;13.20;99.90
22071;DHT22;11200;51.488;6.668;2022-10-22T02:51:13;13.30;99.90
22071;DHT22;11200;51.488;6.668;2022-10-22T02:53:38;12.70;99.90
22071;DHT22;11200;51.488;6.668;2022-10-22T02:56:04;12.70;99.90
22071;DHT22;11200;51.488;6.668;2022-10-22T02:58:30;12.70;99.90
22071;DHT22;11200;51.488;6.668;2022-10-22T03:00:56;13.40;99.90
22071;DHT22;11200;51.488;6.668;2022-10-22T03:03:21;12.70;99.90
22071;DHT22;11200;51.488;6.668;2022-10-22T03:05:48;12.70;99.90
22071;DHT22;11200;51.488;6.668;2022-10-22T03:08:14;12.70;99.90
22071;DHT22;11200;51.488;6.668;2022-10-22T03:10:40;12.40;99.90
22071;DHT22;11200;51.488;6.668;2022-10-22T03:13:06;12.70;99.90
22071;DHT22;11200;51.488;6.668;2022-10-22T03:15:31;12.70;99.90
22071;DHT22;11200;51.488;6.668;2022-10-22T03:17:57;12.60;99.90
22071;DHT22;11200;51.488;6.668;2022-10-22T03:20:22;13.10;99.90
22071;DHT22;11200;51.488;6.668;2022-10-22T03:22:48;13.20;99.90
22071;DHT22;11200;51.488;6.668;2022-10-22T03:25:18;12.60;99.90
22071;DHT22;11200;51.488;6.668;2022-10-22T03:27:45;12.80;99.90
22071;DHT22;11200;51.488;6.668;2022-10-22T03:30:12;12.70;99.90
22071;DHT22;11200;51.488;6.668;2022-10-22T03:32:38;12.60;99.90
22071;DHT22;11200;51.488;6.668;2022-10-22T03:35:04;12.60;99.90
22071;DHT22;11200;51.488;6.668;2022-10-22T03:37:30;12.60;99.90
22071;DHT22;11200;51.488;6.668;2022-10-22T03:39:57;12.60;99.90
22071;DHT22;11200;51.488;6.668;2022-10-22T03:42:23;12.50;99.90
22071;DHT22;11200;51.488;6.668;2022-10-22T03:44:49;13.00;99.90
22071;DHT22;11200;51.488;6.668;2022-10-22T03:47:15;12.50;99.90
22071;DHT22;11200;51.488;6.668;2022-10-22T03:49:40;13.70;99.90
22071;DHT22;11200;51.488;6.668;2022-10-22T03:52:11;12.60;99.90
22071;DHT22;11200;51.488;6.668;2022-10-22T03:54:38;12.80;99.90
22071;DHT22;11200;51.488;6.668;2022-10-22T03:57:04;12.60;99.90
22071;DHT22;11200;51.488;6.668;2022-10-22T03:59:35;12.40;99.90
22071;DHT22;11200;51.488;6.668;2022-10-22T04:02:01;12.80;99.90
22071;DHT22;11200;51.488;6.668;2022-10-22T04:04:27;13.40;99.90
22071;DHT22;11200;51.488;6.668;2022-10-22T04:06:53;12.60;99.90
22071;DHT22;11200;51.488;6.668;2022-10-22T04:09:19;12.60;99.90
22071;DHT22;11200;51.488;6.668;2022-10-22T04:11:44;12.80;99.90
22071;DHT22;11200;51.488;6.668;2022-10-22T04:14:10;12.80;99.90
22071;DHT22;11200;51.488;6.668;2022-10-22T04:16:38;12.60;99.90
22071;DHT22;11200;51.488;6.668;2022-10-22T04:19:04;12.60;99.90
22071;DHT22;11200;51.488;6.668;2022-10-22T04:21:30;12.60;99.90
22071;DHT22;11200;51.488;6.668;2022-10-22T04:23:56;12.90;99.90
22071;DHT22;11200;51.488;6.668;2022-10-22T04:26:22;12.90;99.90
22071;DHT22;11200;51.488;6.668;2022-10-22T04:28:48;13.50;99.90
22071;DHT22;11200;51.488;6.668;2022-10-22T04:31:17;12.50;99.90
22071;DHT22;11200;51.488;6.668;2022-10-22T04:33:42;12.70;99.90
22071;DHT22;11200;51.488;6.668;2022-10-22T04:36:14;12.50;99.90
22071;DHT22;11200;51.488;6.668;2022-10-22T04:38:41;12.60;99.90
22071;DHT22;11200;51.488;6.668;2022-10-22T04:41:16;12.90;99.90
22071;DHT22;11200;51.488;6.668;2022-10-22T04:43:43;12.60;99.90
22071;DHT22;11200;51.488;6.668;2022-10-22T04:46:09;12.30;99.90
22071;DHT22;11200;51.488;6.668;2022-10-22T04:48:37;12.30;99.90
22071;DHT22;11200;51.488;6.668;2022-10-22T04:51:04;12.50;99.90
22071;DHT22;11200;51.488;6.668;2022-10-22T04:53:29;12.50;99.90
22071;DHT22;11200;51.488;6.668;2022-10-22T04:56:12;12.50;99.90
22071;DHT22;11200;51.488;6.668;2022-10-22T04:58:38;12.50;99.90
22071;DHT22;11200;51.488;6.668;2022-10-22T05:01:12;12.50;99.90
22071;DHT22;11200;51.488;6.668;2022-10-22T05:03:38;12.90;99.90
22071;DHT22;11200;51.488;6.668;2022-10-22T05:06:04;12.60;99.90
22071;DHT22;11200;51.488;6.668;2022-10-22T05:08:30;12.50;99.90
22071;DHT22;11200;51.488;6.668;2022-10-22T05:10:56;12.40;99.90
22071;DHT22;11200;51.488;6.668;2022-10-22T05:13:21;12.40;99.90
22071;DHT22;11200;51.488;6.668;2022-10-22T05:15:47;13.00;99.90
22071;DHT22;11200;51.488;6.668;2022-10-22T05:18:12;12.50;99.90
22071;DHT22;11200;51.488;6.668;2022-10-22T05:20:39;12.00;99.90
22071;DHT22;11200;51.488;6.668;2022-10-22T05:23:05;12.50;99.90
22071;DHT22;11200;51.488;6.668;2022-10-22T05:25:30;12.40;99.90
22071;DHT22;11200;51.488;6.668;2022-10-22T05:27:56;12.40;99.90
22071;DHT22;11200;51.488;6.668;2022-10-22T05:30:21;12.50;99.90
22071;DHT22;11200;51.488;6.668;2022-10-22T05:32:47;12.40;99.90
22071;DHT22;11200;51.488;6.668;2022-10-22T05:35:13;12.40;99.90
22071;DHT22;11200;51.488;6.668;2022-10-22T05:37:38;12.50;99.90
22071;DHT22;11200;51.488;6.668;2022-10-22T05:40:04;12.10;99.90
22071;DHT22;11200;51.488;6.668;2022-10-22T05:42:31;12.40;99.90
22071;DHT22;11200;51.488;6.668;2022-10-22T05:44:57;12.40;99.90
22071;DHT22;11200;51.488;6.668;2022-10-22T05:47:22;12.50;99.90
22071;DHT22;11200;51.488;6.668;2022-10-22T05:49:48;12.70;99.90
22071;DHT22;11200;51.488;6.668;2022-10-22T05:52:13;12.60;99.90
22071;DHT22;11200;51.488;6.668;2022-10-22T05:54:39;12.70;99.90
22071;DHT22;11200;51.488;6.668;2022-10-22T05:57:05;12.50;99.90
22071;DHT22;11200;51.488;6.668;2022-10-22T05:59:30;12.90;99.90
22071;DHT22;11200;51.488;6.668;2022-10-22T06:01:56;12.50;99.90
22071;DHT22;11200;51.488;6.668;2022-10-22T06:04:21;13.20;99.90
22071;DHT22;11200;51.488;6.668;2022-10-22T06:06:49;12.60;99.90
22071;DHT22;11200;51.488;6.668;2022-10-22T06:09:29;12.60;99.90
22071;DHT22;11200;51.488;6.668;2022-10-22T06:11:56;12.50;99.90
22071;DHT22;11200;51.488;6.668;2022-10-22T06:14:23;12.50;99.90
22071;DHT22;11200;51.488;6.668;2022-10-22T06:16:49;12.40;99.90
22071;DHT22;11200;51.488;6.668;2022-10-22T06:19:19;12.50;99.90
22071;DHT22;11200;51.488;6.668;2022-10-22T06:21:48;12.60;99.90
22071;DHT22;11200;51.488;6.668;2022-10-22T06:24:16;12.50;99.90
22071;DHT22;11200;51.488;6.668;2022-10-22T06:26:49;12.90;99.90
22071;DHT22;11200;51.488;6.668;2022-10-22T06:29:15;12.50;99.90
22071;DHT22;11200;51.488;6.668;2022-10-22T06:31:41;13.00;99.90
22071;DHT22;11200;51.488;6.668;2022-10-22T06:34:09;12.50;99.90
22071;DHT22;11200;51.488;6.668;2022-10-22T06:36:39;12.90;99.90
22071;DHT22;11200;51.488;6.668;2022-10-22T06:39:10;12.40;99.90
22071;DHT22;11200;51.488;6.668;2022-10-22T06:41:39;13.10;99.90
22071;DHT22;11200;51.488;6.668;2022-10-22T06:44:09;12.40;99.90
22071;DHT22;11200;51.488;6.668;2022-10-22T06:46:37;13.30;99.90
22071;DHT22;11200;51.488;6.668;2022-10-22T06:49:03;12.90;99.90
22071;DHT22;11200;51.488;6.668;2022-10-22T06:51:30;12.70;99.90
22071;DHT22;11200;51.488;6.668;2022-10-22T06:53:57;12.10;99.90
22071;DHT22;11200;51.488;6.668;2022-10-22T06:56:25;13.20;99.90
22071;DHT22;11200;51.488;6.668;2022-10-22T06:58:52;12.60;99.90
22071;DHT22;11200;51.488;6.668;2022-10-22T07:01:23;13.00;99.90
22071;DHT22;11200;51.488;6.668;2022-10-22T07:03:53;12.60;99.90
22071;DHT22;11200;51.488;6.668;2022-10-22T07:06:20;12.60;99.90
22071;DHT22;11200;51.488;6.668;2022-10-22T07:08:46;13.70;99.90
22071;DHT22;11200;51.488;6.668;2022-10-22T07:11:13;12.80;99.90
22071;DHT22;11200;51.488;6.668;2022-10-22T07:13:40;12.50;99.90
22071;DHT22;11200;51.488;6.668;2022-10-22T07:16:07;12.50;99.90
22071;DHT22;11200;51.488;6.668;2022-10-22T07:18:36;12.80;99.90
22071;DHT22;11200;51.488;6.668;2022-10-22T07:21:15;13.40;99.90
22071;DHT22;11200;51.488;6.668;2022-10-22T07:23:44;13.00;99.90
22071;DHT22;11200;51.488;6.668;2022-10-22T07:26:12;13.40;99.90
22071;DHT22;11200;51.488;6.668;2022-10-22T07:28:39;13.20;99.90
22071;DHT22;11200;51.488;6.668;2022-10-22T07:31:07;13.10;99.90
22071;DHT22;11200;51.488;6.668;2022-10-22T07:33:33;13.10;99.90
22071;DHT22;11200;51.488;6.668;2022-10-22T07:36:01;13.10;99.90
22071;DHT22;11200;51.488;6.668;2022-10-22T07:38:27;13.40;99.90
22071;DHT22;11200;51.488;6.668;2022-10-22T07:40:53;13.30;99.90
22071;DHT22;11200;51.488;6.668;2022-10-22T07:43:19;13.20;99.90
22071;DHT22;11200;51.488;6.668;2022-10-22T07:45:44;13.00;99.90
22071;DHT22;11200;51.488;6.668;2022-10-22T07:48:10;13.60;99.90
22071;DHT22;11200;51.488;6.668;2022-10-22T07:50:36;13.30;99.90
22071;DHT22;11200;51.488;6.668;2022-10-22T07:53:01;13.40;99.90
22071;DHT22;11200;51.488;6.668;2022-10-22T07:55:27;13.50;99.90
22071;DHT22;11200;51.488;6.668;2022-10-22T07:57:52;14.20;99.90
22071;DHT22;11200;51.488;6.668;2022-10-22T08:00:18;13.60;99.90
22071;DHT22;11200;51.488;6.668;2022-10-22T08:02:44;13.60;99.90
22071;DHT22;11200;51.488;6.668;2022-10-22T08:05:10;13.60;99.90
22071;DHT22;11200;51.488;6.668;2022-10-22T08:07:37;13.70;99.90
22071;DHT22;11200;51.488;6.668;2022-10-22T08:10:03;13.70;99.90
22071;DHT22;11200;51.488;6.668;2022-10-22T08:12:29;13.80;99.90
22071;DHT22;11200;51.488;6.668;2022-10-22T08:14:55;13.80;99.90
22071;DHT22;11200;51.488;6.668;2022-10-22T08:17:20;13.80;99.90
22071;DHT22;11200;51.488;6.668;2022-10-22T08:19:46;14.00;99.90
22071;DHT22;11200;51.488;6.668;2022-10-22T08:22:11;14.70;99.90
22071;DHT22;11200;51.488;6.668;2022-10-22T08:24:37;13.70;99.90
22071;DHT22;11200;51.488;6.668;2022-10-22T08:27:03;14.00;99.90
22071;DHT22;11200;51.488;6.668;2022-10-22T08:29:28;14.00;99.90
22071;DHT22;11200;51.488;6.668;2022-10-22T08:31:54;14.20;99.90
22071;DHT22;11200;51.488;6.668;2022-10-22T08:34:19;14.20;99.90
22071;DHT22;11200;51.488;6.668;2022-10-22T08:36:46;14.20;99.90
22071;DHT22;11200;51.488;6.668;2022-10-22T08:39:11;14.50;99.90
22071;DHT22;11200;51.488;6.668;2022-10-22T08:42:04;14.00;99.90
22071;DHT22;11200;51.488;6.668;2022-10-22T08:50:39;14.30;99.90
22071;DHT22;11200;51.488;6.668;2022-10-22T08:53:11;14.60;99.90
22071;DHT22;11200;51.488;6.668;2022-10-22T08:55:38;14.40;99.90
22071;DHT22;11200;51.488;6.668;2022-10-22T09:06:23;14.70;99.90
22071;DHT22;11200;51.488;6.668;2022-10-22T09:09:08;14.70;99.90
22071;DHT22;11200;51.488;6.668;2022-10-22T09:11:44;14.70;99.90
22071;DHT22;11200;51.488;6.668;2022-10-22T09:14:18;14.80;99.90
22071;DHT22;11200;51.488;6.668;2022-10-22T09:22:17;14.90;99.90
22071;DHT22;11200;51.488;6.668;2022-10-22T09:25:10;15.00;99.90
22071;DHT22;11200;51.488;6.668;2022-10-22T09:27:38;15.00;99.90
22071;DHT22;11200;51.488;6.668;2022-10-22T09:30:04;15.10;99.90
22071;DHT22;11200;51.488;6.668;2022-10-22T09:32:30;15.10;99.90
22071;DHT22;11200;51.488;6.668;2022-10-22T09:34:57;15.20;99.90
22071;DHT22;11200;51.488;6.668;2022-10-22T09:37:28;15.20;99.90
22071;DHT22;11200;51.488;6.668;2022-10-22T09:39:55;15.20;99.90
22071;DHT22;11200;51.488;6.668;2022-10-22T09:42:22;15.30;99.90
22071;DHT22;11200;51.488;6.668;2022-10-22T09:44:58;15.30;99.90
22071;DHT22;11200;51.488;6.668;2022-10-22T09:50:18;15.40;99.90
22071;DHT22;11200;51.488;6.668;2022-10-22T09:52:45;15.40;99.90
22071;DHT22;11200;51.488;6.668;2022-10-22T09:55:18;15.80;99.90
22071;DHT22;11200;51.488;6.668;2022-10-22T09:57:52;16.40;99.90
22071;DHT22;11200;51.488;6.668;2022-10-22T10:00:19;15.50;99.90
22071;DHT22;11200;51.488;6.668;2022-10-22T10:02:44;15.50;99.90
22071;DHT22;11200;51.488;6.668;2022-10-22T10:05:19;15.90;99.90
22071;DHT22;11200;51.488;6.668;2022-10-22T10:07:45;15.60;99.90
22071;DHT22;11200;51.488;6.668;2022-10-22T10:13:44;15.70;99.90
22071;DHT22;11200;51.488;6.668;2022-10-22T10:22:32;15.80;99.90
22071;DHT22;11200;51.488;6.668;2022-10-22T10:27:38;15.90;99.90
22071;DHT22;11200;51.488;6.668;2022-10-22T10:30:17;15.90;99.90
22071;DHT22;11200;51.488;6.668;2022-10-22T10:38:41;16.00;99.90
22071;DHT22;11200;51.488;6.668;2022-10-22T10:55:31;16.20;99.90
22071;DHT22;11200;51.488;6.668;2022-10-22T11:00:27;16.30;99.90
22071;DHT22;11200;51.488;6.668;2022-10-22T11:03:09;16.50;99.90
22071;DHT22;11200;51.488;6.668;2022-10-22T11:05:53;16.30;99.90
22071;DHT22;11200;51.488;6.668;2022-10-22T11:08:26;16.40;99.90
22071;DHT22;11200;51.488;6.668;2022-10-22T11:11:00;16.40;99.90
22071;DHT22;11200;51.488;6.668;2022-10-22T11:13:32;16.40;99.90
22071;DHT22;11200;51.488;6.668;2022-10-22T11:19:06;16.50;99.90
22071;DHT22;11200;51.488;6.668;2022-10-22T11:21:38;16.50;99.90
22071;DHT22;11200;51.488;6.668;2022-10-22T11:26:44;16.50;99.90
22071;DHT22;11200;51.488;6.668;2022-10-22T11:29:16;16.60;99.90
22071;DHT22;11200;51.488;6.668;2022-10-22T11:31:43;16.60;99.90
22071;DHT22;11200;51.488;6.668;2022-10-22T11:34:19;16.70;99.90
22071;DHT22;11200;51.488;6.668;2022-10-22T11:36:47;16.60;99.90
22071;DHT22;11200;51.488;6.668;2022-10-22T11:39:42;16.70;99.90
22071;DHT22;11200;51.488;6.668;2022-10-22T11:45:06;16.70;99.90
22071;DHT22;11200;51.488;6.668;2022-10-22T11:47:56;16.80;99.90
22071;DHT22;11200;51.488;6.668;2022-10-22T11:53:03;16.70;99.90
22071;DHT22;11200;51.488;6.668;2022-10-22T11:55:43;16.80;99.90
22071;DHT22;11200;51.488;6.668;2022-10-22T11:58:38;16.80;99.90
22071;DHT22;11200;51.488;6.668;2022-10-22T12:11:22;16.80;99.90
22071;DHT22;11200;51.488;6.668;2022-10-22T12:16:44;16.90;99.90
22071;DHT22;11200;51.488;6.668;2022-10-22T12:19:20;16.90;99.90
22071;DHT22;11200;51.488;6.668;2022-10-22T12:21:56;16.40;99.90
22071;DHT22;11200;51.488;6.668;2022-10-22T12:24:23;17.00;99.90
22071;DHT22;11200;51.488;6.668;2022-10-22T12:26:50;17.00;99.90
22071;DHT22;11200;51.488;6.668;2022-10-22T12:29:18;17.00;99.90
22071;DHT22;11200;51.488;6.668;2022-10-22T12:31:46;17.00;99.90
22071;DHT22;11200;51.488;6.668;2022-10-22T12:34:21;17.10;99.90
22071;DHT22;11200;51.488;6.668;2022-10-22T12:36:48;17.10;99.90
22071;DHT22;11200;51.488;6.668;2022-10-22T12:39:17;17.10;99.90
22071;DHT22;11200;51.488;6.668;2022-10-22T12:41:43;17.00;99.90
22071;DHT22;11200;51.488;6.668;2022-10-22T12:44:12;17.20;99.90
22071;DHT22;11200;51.488;6.668;2022-10-22T12:46:39;17.20;99.90
22071;DHT22;11200;51.488;6.668;2022-10-22T12:49:19;17.30;99.90
22071;DHT22;11200;51.488;6.668;2022-10-22T12:51:55;17.30;99.90
22071;DHT22;11200;51.488;6.668;2022-10-22T12:54:35;17.60;99.90
22071;DHT22;11200;51.488;6.668;2022-10-22T13:00:02;18.10;99.90
22071;DHT22;11200;51.488;6.668;2022-10-22T13:02:28;17.50;99.90
22071;DHT22;11200;51.488;6.668;2022-10-22T13:05:19;17.50;99.90
22071;DHT22;11200;51.488;6.668;2022-10-22T13:07:51;17.50;99.90
22071;DHT22;11200;51.488;6.668;2022-10-22T13:10:37;17.60;99.90
22071;DHT22;11200;51.488;6.668;2022-10-22T13:13:03;17.70;99.90
22071;DHT22;11200;51.488;6.668;2022-10-22T13:18:16;17.70;99.90
22071;DHT22;11200;51.488;6.668;2022-10-22T13:20:57;17.70;99.90
22071;DHT22;11200;51.488;6.668;2022-10-22T13:23:28;17.80;99.90
22071;DHT22;11200;51.488;6.668;2022-10-22T13:26:09;17.80;99.90
22071;DHT22;11200;51.488;6.668;2022-10-22T13:28:37;17.80;99.90
22071;DHT22;11200;51.488;6.668;2022-10-22T13:31:19;17.80;99.90
22071;DHT22;11200;51.488;6.668;2022-10-22T13:33:51;17.80;99.90
22071;DHT22;11200;51.488;6.668;2022-10-22T13:36:18;17.90;99.90
22071;DHT22;11200;51.488;6.668;2022-10-22T13:38:44;17.80;99.90
22071;DHT22;11200;51.488;6.668;2022-10-22T13:41:24;17.90;99.90
22071;DHT22;11200;51.488;6.668;2022-10-22T13:43:51;17.90;99.90
22071;DHT22;11200;51.488;6.668;2022-10-22T13:46:17;17.90;99.90
22071;DHT22;11200;51.488;6.668;2022-10-22T13:48:44;17.90;99.90
22071;DHT22;11200;51.488;6.668;2022-10-22T13:51:18;17.90;99.90
22071;DHT22;11200;51.488;6.668;2022-10-22T13:53:51;17.90;99.90
22071;DHT22;11200;51.488;6.668;2022-10-22T13:56:20;17.90;99.90
22071;DHT22;11200;51.488;6.668;2022-10-22T13:58:52;18.00;99.90
22071;DHT22;11200;51.488;6.668;2022-10-22T14:01:20;17.90;99.90
22071;DHT22;11200;51.488;6.668;2022-10-22T14:03:49;18.00;99.90
22071;DHT22;11200;51.488;6.668;2022-10-22T14:06:16;18.00;99.90
22071;DHT22;11200;51.488;6.668;2022-10-22T14:08:45;17.90;99.90
22071;DHT22;11200;51.488;6.668;2022-10-22T14:11:11;18.00;99.90
22071;DHT22;11200;51.488;6.668;2022-10-22T14:13:37;18.00;99.90
22071;DHT22;11200;51.488;6.668;2022-10-22T14:16:05;17.90;99.90
22071;DHT22;11200;51.488;6.668;2022-10-22T14:18:34;17.90;99.90
22071;DHT22;11200;51.488;6.668;2022-10-22T14:21:02;17.90;99.90
22071;DHT22;11200;51.488;6.668;2022-10-22T14:23:30;18.30;99.90
22071;DHT22;11200;51.488;6.668;2022-10-22T14:25:57;18.00;99.90
22071;DHT22;11200;51.488;6.668;2022-10-22T14:28:23;17.90;99.90
22071;DHT22;11200;51.488;6.668;2022-10-22T14:30:50;17.90;99.90
22071;DHT22;11200;51.488;6.668;2022-10-22T14:33:24;17.90;99.90
22071;DHT22;11200;51.488;6.668;2022-10-22T14:35:56;17.90;99.90
22071;DHT22;11200;51.488;6.668;2022-10-22T14:38:21;17.90;99.90
22071;DHT22;11200;51.488;6.668;2022-10-22T14:40:47;17.90;99.90
22071;DHT22;11200;51.488;6.668;2022-10-22T14:43:20;17.90;99.90
22071;DHT22;11200;51.488;6.668;2022-10-22T14:45:46;17.80;99.90
22071;DHT22;11200;51.488;6.668;2022-10-22T14:48:12;17.70;99.90
22071;DHT22;11200;51.488;6.668;2022-10-22T14:50:38;17.80;99.90
22071;DHT22;11200;51.488;6.668;2022-10-22T14:53:03;17.80;99.90
22071;DHT22;11200;51.488;6.668;2022-10-22T14:55:29;17.70;99.90
22071;DHT22;11200;51.488;6.668;2022-10-22T14:57:54;17.70;99.90
22071;DHT22;11200;51.488;6.668;2022-10-22T15:00:20;17.60;99.90
22071;DHT22;11200;51.488;6.668;2022-10-22T15:02:49;17.70;99.90
22071;DHT22;11200;51.488;6.668;2022-10-22T15:05:15;18.00;99.90
22071;DHT22;11200;51.488;6.668;2022-10-22T15:07:43;17.60;99.90
22071;DHT22;11200;51.488;6.668;2022-10-22T15:10:09;17.80;99.90
22071;DHT22;11200;51.488;6.668;2022-10-22T15:12:35;17.50;99.90
22071;DHT22;11200;51.488;6.668;2022-10-22T15:15:01;17.60;99.90
22071;DHT22;11200;51.488;6.668;2022-10-22T15:17:26;17.60;99.90
22071;DHT22;11200;51.488;6.668;2022-10-22T15:19:52;17.40;99.90
22071;DHT22;11200;51.488;6.668;2022-10-22T15:22:19;17.40;99.90
22071;DHT22;11200;51.488;6.668;2022-10-22T15:24:44;17.40;99.90
22071;DHT22;11200;51.488;6.668;2022-10-22T15:27:11;17.40;99.90
22071;DHT22;11200;51.488;6.668;2022-10-22T15:29:40;17.30;99.90
22071;DHT22;11200;51.488;6.668;2022-10-22T15:32:07;17.30;99.90
22071;DHT22;11200;51.488;6.668;2022-10-22T15:34:37;17.30;99.90
22071;DHT22;11200;51.488;6.668;2022-10-22T15:37:07;17.50;99.90
22071;DHT22;11200;51.488;6.668;2022-10-22T15:39:33;17.20;99.90
22071;DHT22;11200;51.488;6.668;2022-10-22T15:41:59;17.20;99.90
22071;DHT22;11200;51.488;6.668;2022-10-22T15:44:31;17.20;99.90
22071;DHT22;11200;51.488;6.668;2022-10-22T15:46:57;17.40;99.90
22071;DHT22;11200;51.488;6.668;2022-10-22T15:49:25;17.10;99.90
22071;DHT22;11200;51.488;6.668;2022-10-22T15:51:51;17.20;99.90
22071;DHT22;11200;51.488;6.668;2022-10-22T15:54:20;17.00;99.90
22071;DHT22;11200;51.488;6.668;2022-10-22T15:56:46;17.00;99.90
22071;DHT22;11200;51.488;6.668;2022-10-22T15:59:13;17.60;99.90
22071;DHT22;11200;51.488;6.668;2022-10-22T16:01:40;16.90;99.90
22071;DHT22;11200;51.488;6.668;2022-10-22T16:04:06;16.80;99.90
22071;DHT22;11200;51.488;6.668;2022-10-22T16:06:37;17.50;99.90
22071;DHT22;11200;51.488;6.668;2022-10-22T16:09:06;16.80;99.90
22071;DHT22;11200;51.488;6.668;2022-10-22T16:11:33;16.70;99.90
22071;DHT22;11200;51.488;6.668;2022-10-22T16:13:59;16.70;99.90
22071;DHT22;11200;51.488;6.668;2022-10-22T16:16:28;16.70;99.90
22071;DHT22;11200;51.488;6.668;2022-10-22T16:18:54;16.60;99.90
22071;DHT22;11200;51.488;6.668;2022-10-22T16:21:20;16.70;99.90
22071;DHT22;11200;51.488;6.668;2022-10-22T16:23:46;16.50;99.90
22071;DHT22;11200;51.488;6.668;2022-10-22T16:26:13;16.50;99.90
22071;DHT22;11200;51.488;6.668;2022-10-22T16:28:40;16.40;99.90
22071;DHT22;11200;51.488;6.668;2022-10-22T16:31:08;16.40;99.90
22071;DHT22;11200;51.488;6.668;2022-10-22T16:33:38;16.30;99.90
22071;DHT22;11200;51.488;6.668;2022-10-22T16:36:15;16.30;99.90
22071;DHT22;11200;51.488;6.668;2022-10-22T16:38:42;16.20;99.90
22071;DHT22;11200;51.488;6.668;2022-10-22T16:41:10;16.10;99.90
22071;DHT22;11200;51.488;6.668;2022-10-22T16:43:36;16.10;99.90
22071;DHT22;11200;51.488;6.668;2022-10-22T16:46:05;15.80;99.90
22071;DHT22;11200;51.488;6.668;2022-10-22T16:48:31;16.10;99.90
22071;DHT22;11200;51.488;6.668;2022-10-22T16:50:57;16.00;99.90
22071;DHT22;11200;51.488;6.668;2022-10-22T16:53:23;15.90;99.90
22071;DHT22;11200;51.488;6.668;2022-10-22T16:55:49;15.90;99.90
22071;DHT22;11200;51.488;6.668;2022-10-22T16:58:15;15.80;99.90
22071;DHT22;11200;51.488;6.668;2022-10-22T17:00:41;15.90;99.90
22071;DHT22;11200;51.488;6.668;2022-10-22T17:03:09;15.90;99.90
22071;DHT22;11200;51.488;6.668;2022-10-22T17:05:35;15.70;99.90
22071;DHT22;11200;51.488;6.668;2022-10-22T17:08:10;15.60;99.90
22071;DHT22;11200;51.488;6.668;2022-10-22T17:10:36;15.60;99.90
22071;DHT22;11200;51.488;6.668;2022-10-22T17:13:05;15.50;99.90
22071;DHT22;11200;51.488;6.668;2022-10-22T17:15:31;15.50;99.90
22071;DHT22;11200;51.488;6.668;2022-10-22T17:17:59;15.50;99.90
22071;DHT22;11200;51.488;6.668;2022-10-22T17:20:25;15.40;99.90
22071;DHT22;11200;51.488;6.668;2022-10-22T17:22:51;15.30;99.90
22071;DHT22;11200;51.488;6.668;2022-10-22T17:25:25;15.30;99.90
22071;DHT22;11200;51.488;6.668;2022-10-22T17:27:57;15.30;99.90
22071;DHT22;11200;51.488;6.668;2022-10-22T17:30:23;15.00;99.90